Time;durP1;ratioP1;P1;durP2;ratioP2;P2;SDS_P1;SDS_P2;PMS_P1;PMS_P2;Temp;Humidity;BMP_temperature;BMP_pressure;BME280_temperature;BME280_humidity;BME280_pressure;Samples;Min_cycle;Max_cycle;Signal;HPM_P1;HPM_P2
2024/02/24 00:01:13;;;;;;;4.65;2.88;;;2.80;99.90;;;;;;7609043;19;20082;-73
2024/02/24 00:03:45;;;;;;;4.65;3.30;;;2.80;99.90;;;;;;7600113;19;21154;-73
2024/02/24 00:06:17;;;;;;;6.47;3.38;;;2.80;99.90;;;;;;7608228;19;20403;-73
2024/02/24 00:08:50;;;;;;;6.38;3.10;;;2.80;99.90;;;;;;7588615;19;20018;-74
2024/02/24 00:11:22;;;;;;;4.15;2.92;;;2.80;99.90;;;;;;7580498;19;20380;-72
2024/02/24 00:13:54;;;;;;;7.13;3.42;;;2.90;99.90;;;;;;7608658;19;20014;-73
2024/02/24 00:16:27;;;;;;;4.07;2.85;;;2.90;99.90;;;;;;7607885;19;20042;-73
2024/02/24 00:18:59;;;;;;;9.03;3.80;;;2.80;99.90;;;;;;7608379;19;20018;-72
2024/02/24 00:21:32;;;;;;;6.85;3.78;;;2.80;99.90;;;;;;7605918;19;20078;-72
2024/02/24 00:24:04;;;;;;;5.75;3.58;;;2.70;99.90;;;;;;7587761;19;21417;-72
2024/02/24 00:26:36;;;;;;;4.63;3.10;;;2.70;99.90;;;;;;7598561;19;20196;-73
2024/02/24 00:29:09;;;;;;;5.00;3.50;;;2.70;99.90;;;;;;7605801;19;20114;-73
2024/02/24 00:31:41;;;;;;;3.75;2.88;;;2.70;99.90;;;;;;7605210;19;20025;-73
2024/02/24 00:34:14;;;;;;;6.03;3.67;;;2.70;99.90;;;;;;7606747;19;20023;-73
2024/02/24 00:36:46;;;;;;;6.45;3.40;;;2.70;99.90;;;;;;7578642;19;22084;-73
2024/02/24 00:39:19;;;;;;;6.50;3.83;;;2.70;99.90;;;;;;7595629;19;20010;-73
2024/02/24 00:41:52;;;;;;;4.60;3.55;;;2.60;99.90;;;;;;7601655;19;20669;-73
2024/02/24 00:44:24;;;;;;;4.40;3.10;;;2.60;99.90;;;;;;7612143;19;20269;-72
2024/02/24 00:46:57;;;;;;;4.75;3.38;;;2.60;99.90;;;;;;7601995;19;20093;-73
2024/02/24 00:49:29;;;;;;;3.83;2.92;;;2.60;99.90;;;;;;7604663;19;20042;-73
2024/02/24 00:52:02;;;;;;;3.95;3.15;;;2.60;99.90;;;;;;7603697;19;20028;-74
2024/02/24 00:54:34;;;;;;;5.57;3.55;;;2.50;99.90;;;;;;7574122;19;20018;-75
2024/02/24 00:57:06;;;;;;;4.53;3.22;;;2.40;99.90;;;;;;7602235;19;20022;-75
2024/02/24 00:59:40;;;;;;;5.28;3.67;;;2.30;99.90;;;;;;7603358;19;20019;-73
2024/02/24 01:02:13;;;;;;;3.90;2.67;;;2.30;99.90;;;;;;7600240;19;20021;-73
2024/02/24 01:04:45;;;;;;;3.20;2.80;;;2.30;99.90;;;;;;7594928;19;20114;-73
2024/02/24 01:07:21;;;;;;;3.65;2.90;;;2.20;99.90;;;;;;7603639;19;20103;-73
2024/02/24 01:09:53;;;;;;;5.90;3.70;;;2.20;99.90;;;;;;7583115;19;20018;-75
2024/02/24 01:12:26;;;;;;;4.20;3.08;;;2.10;99.90;;;;;;7579488;19;20067;-74
2024/02/24 01:14:58;;;;;;;5.18;3.33;;;2.10;99.90;;;;;;7601433;19;20033;-74
2024/02/24 01:17:31;;;;;;;4.90;3.15;;;2.10;99.90;;;;;;7605404;19;20035;-76
2024/02/24 01:20:04;;;;;;;5.22;3.25;;;2.00;99.90;;;;;;7603155;19;20038;-74
2024/02/24 01:22:36;;;;;;;5.90;3.73;;;2.00;99.90;;;;;;7602907;19;20015;-74
2024/02/24 01:25:08;;;;;;;7.37;4.33;;;2.10;99.90;;;;;;7584018;19;20313;-74
2024/02/24 01:27:41;;;;;;;6.20;4.18;;;2.10;99.90;;;;;;7600401;19;20011;-74
2024/02/24 01:30:13;;;;;;;6.60;4.35;;;2.10;99.90;;;;;;7604901;19;20060;-75
2024/02/24 01:32:45;;;;;;;8.35;4.57;;;2.10;99.90;;;;;;7601126;19;20630;-73
2024/02/24 01:35:18;;;;;;;5.63;3.85;;;2.20;99.90;;;;;;7605167;19;20121;-74
2024/02/24 01:37:51;;;;;;;5.50;4.18;;;2.20;99.90;;;;;;7593751;19;20034;-74
2024/02/24 01:40:23;;;;;;;5.55;3.80;;;2.10;99.90;;;;;;7602913;19;20014;-73
2024/02/24 01:42:55;;;;;;;8.85;4.32;;;2.10;99.90;;;;;;7603247;19;20839;-73
2024/02/24 01:45:27;;;;;;;7.05;3.80;;;2.00;99.90;;;;;;7606653;19;20339;-73
2024/02/24 01:48:00;;;;;;;8.88;4.40;;;2.00;99.90;;;;;;7598262;19;20010;-74
2024/02/24 01:50:33;;;;;;;5.88;3.95;;;2.00;99.90;;;;;;7602647;19;20029;-73
2024/02/24 01:53:06;;;;;;;7.13;4.05;;;2.10;99.90;;;;;;7595375;19;20474;-72
2024/02/24 01:55:39;;;;;;;4.45;3.05;;;2.10;99.90;;;;;;7580717;19;20019;-74
2024/02/24 01:58:12;;;;;;;5.50;3.75;;;2.20;99.90;;;;;;7602886;19;20027;-74
2024/02/24 02:00:45;;;;;;;5.85;3.38;;;2.10;99.90;;;;;;7602159;19;20018;-75
2024/02/24 02:03:18;;;;;;;3.65;2.63;;;2.00;99.90;;;;;;7588901;19;20030;-72
2024/02/24 02:05:51;;;;;;;4.60;3.30;;;1.90;99.90;;;;;;7602619;19;20019;-72
2024/02/24 02:08:23;;;;;;;5.50;3.00;;;1.90;99.90;;;;;;7608070;19;20034;-76
2024/02/24 02:10:56;;;;;;;4.57;3.00;;;1.90;99.90;;;;;;7584186;19;20014;-73
2024/02/24 02:13:29;;;;;;;;;;;1.80;99.90;;;;;;7606610;19;20015;-72
2024/02/24 02:16:01;;;;;;;;;;;1.80;99.90;;;;;;7605673;19;20843;-74
2024/02/24 02:18:34;;;;;;;;;;;1.70;99.90;;;;;;7610756;19;20450;-73
2024/02/24 02:21:07;;;;;;;;;;;1.80;99.90;;;;;;7607790;19;19918;-77
2024/02/24 02:23:39;;;;;;;;;;;1.80;99.90;;;;;;7609810;19;19946;-72
2024/02/24 02:26:13;;;;;;;;;;;1.90;99.90;;;;;;7607528;19;19954;-72
2024/02/24 02:28:45;;;;;;;;;;;1.90;99.90;;;;;;7606257;19;20029;-74
2024/02/24 02:31:17;;;;;;;;;;;1.90;99.90;;;;;;7587872;19;20013;-75
2024/02/24 02:33:50;;;;;;;;;;;1.90;99.90;;;;;;7604480;19;20329;-73
2024/02/24 02:36:22;;;;;;;;;;;1.90;99.90;;;;;;7606772;19;19918;-72
2024/02/24 02:38:54;;;;;;;;;;;1.80;99.90;;;;;;7597134;19;20457;-75
2024/02/24 02:41:27;;;;;;;;;;;1.80;99.90;;;;;;7609041;19;19919;-75
2024/02/24 02:43:59;;;;;;;;;;;1.80;99.90;;;;;;7603663;19;19918;-76
2024/02/24 02:46:31;;;;;;;;;;;1.80;99.90;;;;;;7608195;19;20807;-73
2024/02/24 02:49:03;;;;;;;;;;;1.70;99.90;;;;;;7600843;19;19922;-74
2024/02/24 02:51:36;;;;;;;;;;;1.80;99.90;;;;;;7609719;19;20846;-73
2024/02/24 02:54:09;;;;;;;;;;;1.70;99.90;;;;;;7601546;19;19926;-74
2024/02/24 02:56:42;;;;;;;;;;;1.80;99.90;;;;;;7604001;19;19919;-74
2024/02/24 02:59:14;;;;;;;;;;;1.80;99.90;;;;;;7603398;19;19914;-74
2024/02/24 03:01:47;;;;;;;;;;;1.90;99.90;;;;;;7594132;19;19918;-73
2024/02/24 03:04:20;;;;;;;;;;;1.90;99.90;;;;;;7606497;19;19945;-74
2024/02/24 03:06:52;;;;;;;;;;;1.80;99.90;;;;;;7608250;19;19922;-74
2024/02/24 03:09:24;;;;;;;;;;;1.70;99.90;;;;;;7590368;19;19930;-74
2024/02/24 03:11:56;;;;;;;;;;;1.60;99.90;;;;;;7600697;19;20006;-74
2024/02/24 03:14:29;;;;;;;;;;;1.60;99.90;;;;;;7610674;19;21239;-74
2024/02/24 03:17:01;;;;;;;;;;;1.60;99.90;;;;;;7597884;19;19911;-73
2024/02/24 03:19:33;;;;;;;;;;;1.50;99.90;;;;;;7612850;19;19918;-72
2024/02/24 03:22:06;;;;;;;;;;;1.40;99.90;;;;;;7602758;19;19970;-74
2024/02/24 03:24:42;;;;;;;;;;;1.30;99.90;;;;;;7600960;19;20006;-74
2024/02/24 03:27:14;;;;;;;;;;;1.30;99.90;;;;;;7603213;19;20474;-73
2024/02/24 03:29:46;;;;;;;;;;;1.20;99.90;;;;;;7604396;19;20559;-72
2024/02/24 03:32:19;;;;;;;;;;;1.20;99.90;;;;;;7606669;19;20986;-73
2024/02/24 03:34:51;;;;;;;;;;;1.20;99.90;;;;;;7601006;19;19939;-72
2024/02/24 03:37:23;;;;;;;;;;;1.20;99.90;;;;;;7605062;19;19914;-74
2024/02/24 03:39:56;;;;;;;;;;;1.30;99.90;;;;;;7601568;19;21419;-74
2024/02/24 03:42:28;;;;;;;;;;;1.30;99.90;;;;;;7604045;19;19919;-75
2024/02/24 03:45:01;;;;;;;;;;;1.20;99.90;;;;;;7606179;19;19944;-76
2024/02/24 03:47:33;;;;;;;;;;;1.30;99.90;;;;;;7601223;19;21957;-75
2024/02/24 03:50:07;;;;;;;;;;;1.20;99.90;;;;;;7602890;19;19918;-73
2024/02/24 03:52:40;;;;;;;;;;;1.10;99.90;;;;;;7604577;19;20912;-75
2024/02/24 03:55:12;;;;;;;;;;;1.20;99.90;;;;;;7594641;19;19926;-73
2024/02/24 03:57:44;;;;;;;;;;;1.10;99.90;;;;;;7603580;19;21269;-74
2024/02/24 04:00:16;;;;;;;;;;;1.10;99.90;;;;;;7607090;19;19915;-74
2024/02/24 04:02:49;;;;;;;;;;;1.10;99.90;;;;;;7595185;19;19970;-72
2024/02/24 04:05:21;;;;;;;;;;;1.10;99.90;;;;;;7601922;19;19946;-73
2024/02/24 04:07:54;;;;;;;;;;;1.10;99.90;;;;;;7605220;19;20624;-73
2024/02/24 04:10:26;;;;;;;;;;;1.10;99.90;;;;;;7595909;19;19926;-73
2024/02/24 04:12:58;;;;;;;;;;;1.00;99.90;;;;;;7602933;19;19922;-72
2024/02/24 04:15:30;;;;;;;;;;;1.00;99.90;;;;;;7604921;19;19931;-74
2024/02/24 04:18:03;;;;;;;;;;;0.90;99.90;;;;;;7600097;19;19925;-75
2024/02/24 04:20:36;;;;;;;;;;;0.90;99.90;;;;;;7599791;19;20404;-74
2024/02/24 04:23:08;;;;;;;;;;;0.80;99.90;;;;;;7606002;19;19911;-73
2024/02/24 04:25:40;;;;;;;;;;;0.80;99.90;;;;;;7606735;19;19922;-74
2024/02/24 04:28:13;;;;;;;;;;;0.90;99.90;;;;;;7600822;19;19923;-73
2024/02/24 04:30:46;;;;;;;;;;;1.00;99.90;;;;;;7606514;19;19926;-72
2024/02/24 04:33:19;;;;;;;;;;;1.00;99.90;;;;;;7600919;19;20953;-73
2024/02/24 04:35:52;;;;;;;;;;;1.00;99.90;;;;;;7603746;19;19918;-73
2024/02/24 04:38:25;;;;;;;;;;;1.00;99.90;;;;;;7543260;19;21279;-74
2024/02/24 04:40:57;;;;;;;;;;;1.10;99.90;;;;;;7582729;19;20134;-73
2024/02/24 04:43:29;;;;;;;;;;;1.00;99.90;;;;;;7600839;19;19963;-72
2024/02/24 04:46:05;;;;;;;;;;;1.00;99.90;;;;;;7604872;19;19929;-74
2024/02/24 04:48:37;;;;;;;;;;;1.00;99.90;;;;;;7606744;19;19923;-72
2024/02/24 04:51:09;;;;;;;;;;;0.90;99.90;;;;;;7598413;19;19986;-73
2024/02/24 04:53:42;;;;;;;;;;;0.90;99.90;;;;;;7595752;19;19922;-73
2024/02/24 04:56:16;;;;;;;;;;;0.90;99.90;;;;;;7598926;19;19936;-73
2024/02/24 04:58:49;;;;;;;;;;;1.00;99.90;;;;;;7603712;19;19923;-74
2024/02/24 05:01:21;;;;;;;;;;;0.90;99.90;;;;;;7602284;19;19922;-74
2024/02/24 05:03:54;;;;;;;;;;;0.80;99.90;;;;;;7604235;19;19930;-73
2024/02/24 05:06:26;;;;;;;;;;;0.80;99.90;;;;;;7570390;19;19991;-73
2024/02/24 05:08:59;;;;;;;;;;;0.80;99.90;;;;;;7585307;19;20007;-75
2024/02/24 05:11:31;;;;;;;;;;;0.70;99.90;;;;;;7574991;19;19937;-74
2024/02/24 05:14:04;;;;;;;;;;;0.70;99.90;;;;;;7594251;19;19930;-74
2024/02/24 05:16:39;;;;;;;;;;;0.70;99.90;;;;;;7588446;19;20200;-74
2024/02/24 05:19:12;;;;;;;;;;;0.70;99.90;;;;;;7593540;19;20721;-75
2024/02/24 05:21:44;;;;;;;;;;;0.70;99.90;;;;;;7598924;19;19922;-72
2024/02/24 05:24:17;;;;;;;;;;;0.70;99.90;;;;;;7589493;19;20353;-73
2024/02/24 05:26:49;;;;;;;;;;;0.80;99.90;;;;;;7605935;19;20471;-74
2024/02/24 05:29:21;;;;;;;;;;;0.80;99.90;;;;;;7599607;19;19923;-73
2024/02/24 05:31:54;;;;;;;;;;;0.80;99.90;;;;;;7599523;19;19962;-74
2024/02/24 05:34:27;;;;;;;;;;;0.80;99.90;;;;;;7600617;19;21512;-73
2024/02/24 05:36:59;;;;;;;;;;;0.80;99.90;;;;;;7601936;19;19910;-73
2024/02/24 05:39:31;;;;;;;;;;;0.70;99.90;;;;;;7591295;19;19926;-72
2024/02/24 05:42:04;;;;;;;;;;;0.70;99.90;;;;;;7597916;19;19990;-73
2024/02/24 05:44:37;;;;;;;;;;;0.70;99.90;;;;;;7597329;19;19939;-74
2024/02/24 05:47:09;;;;;;;;;;;0.70;99.90;;;;;;7599066;19;20325;-73
2024/02/24 05:49:42;;;;;;;;;;;0.70;99.90;;;;;;7602772;19;20381;-73
2024/02/24 05:52:18;;;;;;;;;;;0.60;99.90;;;;;;7600483;19;19942;-73
2024/02/24 05:54:50;;;;;;;;;;;0.60;99.90;;;;;;7590899;19;19918;-73
2024/02/24 05:57:24;;;;;;;;;;;0.60;99.90;;;;;;7606470;19;19933;-74
2024/02/24 05:59:56;;;;;;;;;;;0.60;99.90;;;;;;7606570;19;19923;-73
2024/02/24 06:02:28;;;;;;;;;;;0.70;99.90;;;;;;7587230;19;21422;-73
2024/02/24 06:05:01;;;;;;;;;;;0.70;99.90;;;;;;7615742;19;19921;-72
2024/02/24 06:07:33;;;;;;;;;;;0.70;99.90;;;;;;7609563;19;19919;-73
2024/02/24 06:10:06;;;;;;;;;;;0.60;99.90;;;;;;7600970;19;19933;-73
2024/02/24 06:12:38;;;;;;;;;;;0.60;99.90;;;;;;7608924;19;19918;-74
2024/02/24 06:15:11;;;;;;;;;;;0.60;99.90;;;;;;7613573;19;20435;-73
2024/02/24 06:17:43;;;;;;;;;;;0.60;99.90;;;;;;7611940;19;19922;-73
2024/02/24 06:20:15;;;;;;;;;;;0.50;99.90;;;;;;7603199;19;20409;-74
2024/02/24 06:22:48;;;;;;;;;;;0.40;99.90;;;;;;7613500;19;19926;-73
2024/02/24 06:25:20;;;;;;;;;;;0.40;99.90;;;;;;7606537;19;20759;-73
2024/02/24 06:27:53;;;;;;;;;;;0.40;99.90;;;;;;7612283;19;19975;-73
2024/02/24 06:30:25;;;;;;;;;;;0.30;99.90;;;;;;7605105;19;19926;-72
2024/02/24 06:32:57;;;;;;;;;;;0.40;99.90;;;;;;7612206;19;19922;-73
2024/02/24 06:35:30;;;;;;;;;;;0.50;99.90;;;;;;7606873;19;19915;-73
2024/02/24 06:38:03;;;;;;;;;;;0.50;99.90;;;;;;7607209;19;21036;-72
2024/02/24 06:40:36;;;;;;;;;;;0.60;99.90;;;;;;7604805;19;20475;-72
2024/02/24 06:43:17;;;;;;;;;;;0.60;99.90;;;;;;7609180;19;19926;-76
2024/02/24 06:45:49;;;;;;;;;;;0.60;99.90;;;;;;7607672;19;19919;-74
2024/02/24 06:48:21;;;;;;;;;;;0.50;99.90;;;;;;7607301;19;19982;-74
2024/02/24 06:50:54;;;;;;;;;;;0.60;99.90;;;;;;7612757;19;19914;-73
2024/02/24 06:53:26;;;;;;;;;;;0.80;99.90;;;;;;7603807;19;19913;-74
2024/02/24 06:56:03;;;;;;;;;;;0.90;99.90;;;;;;7608841;19;21195;-74
2024/02/24 06:58:36;;;;;;;;;;;0.90;99.90;;;;;;7610080;19;20648;-73
2024/02/24 07:01:08;;;;;;;;;;;0.90;99.90;;;;;;7601602;19;19929;-74
2024/02/24 07:03:40;;;;;;;;;;;0.90;99.90;;;;;;7601419;19;20529;-74
2024/02/24 07:06:13;;;;;;;;;;;0.90;99.90;;;;;;7607537;19;20318;-75
2024/02/24 07:08:46;;;;;;;;;;;1.00;99.90;;;;;;7585850;19;19938;-75
2024/02/24 07:11:18;;;;;;;;;;;1.10;99.90;;;;;;7581718;19;19938;-74
2024/02/24 07:13:50;;;;;;;;;;;1.30;99.90;;;;;;7589823;19;19926;-73
2024/02/24 07:16:23;;;;;;;;;;;1.40;99.90;;;;;;7589210;19;19919;-75
2024/02/24 07:18:56;;;;;;;;;;;1.40;99.90;;;;;;7587070;19;19923;-71
2024/02/24 07:21:29;;;;;;;;;;;1.60;99.90;;;;;;7544594;19;20859;-72
2024/02/24 07:24:01;;;;;;;;;;;1.80;99.90;;;;;;7568729;19;20293;-74
2024/02/24 07:26:40;;;;;;;;;;;1.90;99.90;;;;;;7573067;19;19910;-74
2024/02/24 07:29:12;;;;;;;;;;;2.00;99.90;;;;;;7588185;19;19915;-74
2024/02/24 07:31:45;;;;;;;;;;;2.00;99.90;;;;;;7594471;19;19918;-71
2024/02/24 07:34:18;;;;;;;;;;;2.10;99.90;;;;;;7595617;19;19956;-72
2024/02/24 07:36:50;;;;;;;;;;;2.30;99.90;;;;;;7584481;19;20352;-74
2024/02/24 07:39:23;;;;;;;;;;;2.40;99.90;;;;;;7575503;19;19922;-74
2024/02/24 07:41:55;;;;;;;;;;;2.60;99.90;;;;;;7569931;19;19918;-73
2024/02/24 07:44:28;;;;;;;;;;;2.80;99.90;;;;;;7565474;19;19922;-73
2024/02/24 07:47:01;;;;;;;;;;;2.90;99.90;;;;;;7579739;19;20002;-72
2024/02/24 07:49:33;;;;;;;;;;;3.20;99.90;;;;;;7587323;19;19926;-73
2024/02/24 07:52:06;;;;;;;;;;;3.30;99.90;;;;;;7591183;19;19918;-72
2024/02/24 07:54:38;;;;;;;;;;;3.40;99.90;;;;;;7588377;19;19929;-74
2024/02/24 07:57:11;;;;;;;;;;;3.50;99.90;;;;;;7586552;19;20345;-73
2024/02/24 07:59:43;;;;;;;;;;;3.50;99.90;;;;;;7596850;19;19918;-72
2024/02/24 08:02:15;;;;;;;;;;;3.70;99.90;;;;;;7588028;19;20743;-73
2024/02/24 08:04:47;;;;;;;;;;;3.90;99.90;;;;;;7592545;19;19922;-73
2024/02/24 08:07:20;;;;;;;;;;;4.00;99.90;;;;;;7584379;19;19923;-74
2024/02/24 08:09:52;;;;;;;;;;;4.10;99.90;;;;;;7578016;19;19918;-73
2024/02/24 08:12:24;;;;;;;;;;;4.20;99.90;;;;;;7595199;19;19931;-73
2024/02/24 08:14:57;;;;;;;;;;;4.20;99.90;;;;;;7590623;19;19919;-73
2024/02/24 08:17:29;;;;;;;;;;;4.30;99.90;;;;;;7591735;19;19979;-73
2024/02/24 08:20:02;;;;;;;;;;;4.40;99.90;;;;;;7581355;19;19941;-73
2024/02/24 08:22:34;;;;;;;;;;;4.40;99.90;;;;;;7602767;19;19946;-73
2024/02/24 08:25:06;;;;;;;;;;;4.50;99.90;;;;;;7581644;19;19918;-73
2024/02/24 08:27:39;;;;;;;;;;;4.50;99.90;;;;;;7578860;19;19911;-73
2024/02/24 08:30:11;;;;;;;;;;;4.50;99.90;;;;;;7593442;19;20347;-74
2024/02/24 08:32:44;;;;;;;;;;;4.50;99.90;;;;;;7595107;19;19926;-73
2024/02/24 08:35:19;;;;;;;;;;;4.60;99.90;;;;;;7598875;19;19927;-73
2024/02/24 08:37:51;;;;;;;;;;;4.70;99.90;;;;;;7590232;19;19956;-73
2024/02/24 08:40:23;;;;;;;;;;;4.80;99.90;;;;;;7592872;19;20300;-73
2024/02/24 08:42:56;;;;;;;;;;;4.90;99.90;;;;;;7579013;19;19933;-74
2024/02/24 08:45:29;;;;;;;;;;;5.10;99.90;;;;;;7568661;19;19926;-75
2024/02/24 08:48:01;;;;;;;;;;;5.30;99.90;;;;;;7571154;19;20355;-75
2024/02/24 08:50:34;;;;;;;;;;;5.40;99.90;;;;;;7576440;19;19922;-75
2024/02/24 08:53:07;;;;;;;;;;;5.50;99.90;;;;;;7528676;19;20274;-74
2024/02/24 08:55:39;;;;;;;;;;;5.60;99.90;;;;;;7566060;19;19992;-73
2024/02/24 08:58:11;;;;;;;;;;;5.60;99.90;;;;;;7537925;19;19930;-72
2024/02/24 09:00:44;;;;;;;;;;;5.70;99.90;;;;;;7580308;19;19923;-74
2024/02/24 09:03:17;;;;;;;;;;;5.70;99.90;;;;;;7590006;19;20439;-73
2024/02/24 09:05:51;;;;;;;;;;;5.70;99.90;;;;;;7591578;19;19911;-74
2024/02/24 09:08:24;;;;;;;;;;;5.80;99.90;;;;;;7589335;19;19926;-75
2024/02/24 09:10:56;;;;;;;;;;;5.80;99.90;;;;;;7545778;19;19938;-74
2024/02/24 09:13:28;;;;;;;;;;;5.80;99.90;;;;;;7602330;19;19937;-75
2024/02/24 09:16:00;;;;;;;;;;;5.80;99.90;;;;;;7591577;19;19948;-75
2024/02/24 09:18:33;;;;;;;;;;;5.90;99.90;;;;;;7598034;19;20915;-76
2024/02/24 09:21:07;;;;;;;;;;;5.90;99.90;;;;;;7591723;19;19914;-78
2024/02/24 09:23:43;;;;;;;;;;;6.00;99.90;;;;;;7593664;19;20409;-76
2024/02/24 09:26:16;;;;;;;;;;;6.10;99.90;;;;;;7592437;19;20519;-74
2024/02/24 09:28:49;;;;;;;;;;;6.20;99.90;;;;;;7593868;19;19923;-77
2024/02/24 09:31:27;;;;;;;;;;;6.40;99.90;;;;;;7597591;19;19934;-74
2024/02/24 09:34:00;;;;;;;;;;;6.60;99.90;;;;;;7599299;19;20348;-73
2024/02/24 09:36:36;;;;;;;;;;;6.60;99.90;;;;;;7581804;19;19923;-75
2024/02/24 09:39:08;;;;;;;;;;;6.70;99.90;;;;;;7550535;19;19923;-75
2024/02/24 09:41:41;;;;;;;;;;;6.70;99.90;;;;;;7585777;19;19930;-76
2024/02/24 09:44:13;;;;;;;;;;;6.70;99.90;;;;;;7602673;19;19983;-75
2024/02/24 09:46:45;;;;;;;;;;;6.80;99.90;;;;;;7602968;19;19922;-73
2024/02/24 09:49:18;;;;;;;;;;;6.90;99.90;;;;;;7597076;19;19927;-75
2024/02/24 09:51:52;;;;;;;;;;;6.90;99.90;;;;;;7607165;19;19914;-75
2024/02/24 09:54:27;;;;;;;;;;;7.00;99.90;;;;;;7600671;19;19918;-76
2024/02/24 09:57:00;;;;;;;;;;;7.10;99.90;;;;;;7603991;19;19919;-76
2024/02/24 09:59:33;;;;;;;;;;;7.10;99.90;;;;;;7598748;19;19923;-76
2024/02/24 10:02:05;;;;;;;;;;;7.30;99.90;;;;;;7582096;19;19923;-75
2024/02/24 10:04:39;;;;;;;;;;;7.30;99.90;;;;;;7597711;19;19951;-74
2024/02/24 10:07:11;;;;;;;;;;;7.30;99.90;;;;;;7606521;19;19918;-75
2024/02/24 10:09:44;;;;;;;;;;;7.30;99.90;;;;;;7602257;19;19918;-74
2024/02/24 10:12:16;;;;;;;;;;;7.40;99.90;;;;;;7602434;19;19946;-76
2024/02/24 10:14:48;;;;;;;;;;;7.60;99.90;;;;;;7603493;19;20357;-74
2024/02/24 10:17:21;;;;;;;;;;;7.60;99.90;;;;;;7595761;19;19950;-74
2024/02/24 10:19:55;;;;;;;;;;;7.70;99.90;;;;;;7609269;19;19930;-74
2024/02/24 10:22:27;;;;;;;;;;;7.90;99.90;;;;;;7578984;19;19915;-74
2024/02/24 10:24:59;;;;;;;;;;;8.00;99.90;;;;;;7593834;19;19942;-76
2024/02/24 10:27:32;;;;;;;;;;;8.10;99.90;;;;;;7604004;19;19922;-75
2024/02/24 10:30:05;;;;;;;;;;;8.10;99.90;;;;;;7612843;19;20921;-74
2024/02/24 10:32:39;;;;;;;;;;;8.20;99.90;;;;;;7599182;19;19914;-77
2024/02/24 10:35:11;;;;;;;;;;;8.10;99.90;;;;;;7605157;19;19926;-76
2024/02/24 10:37:44;;;;;;;;;;;8.20;99.90;;;;;;7608364;19;19922;-75
2024/02/24 10:40:37;;;;;;;;;;;8.30;99.90;;;;;;7578436;19;20023;-74
2024/02/24 10:43:09;;;;;;;;;;;8.30;99.90;;;;;;7571802;19;19926;-74
2024/02/24 10:45:42;;;;;;;;;;;8.40;99.90;;;;;;7581689;19;19919;-74
2024/02/24 10:48:14;;;;;;;;;;;8.50;99.90;;;;;;7583733;19;20281;-75
2024/02/24 10:50:47;;;;;;;;;;;8.60;99.90;;;;;;7575598;19;20573;-75
2024/02/24 10:53:22;;;;;;;;;;;8.80;99.90;;;;;;7574864;19;19930;-77
2024/02/24 10:55:57;;;;;;;;;;;8.90;99.20;;;;;;7579226;19;20391;-74
2024/02/24 10:58:29;;;;;;;;;;;9.00;99.10;;;;;;7570727;19;20527;-75
2024/02/24 11:01:04;;;;;;;;;;;9.10;98.90;;;;;;7573570;19;19982;-76
2024/02/24 11:03:37;;;;;;;;;;;9.30;98.80;;;;;;7572570;19;20503;-76
2024/02/24 11:06:11;;;;;;;;;;;9.30;98.00;;;;;;7574132;19;19918;-76
2024/02/24 11:08:45;;;;;;;;;;;9.30;97.80;;;;;;7577513;19;20445;-74
2024/02/24 11:11:18;;;;;;;;;;;9.30;96.90;;;;;;7577068;19;19922;-74
2024/02/24 11:13:51;;;;;;;;;;;9.30;96.00;;;;;;7589002;19;19964;-74
2024/02/24 11:16:38;;;;;;;;;;;9.40;97.10;;;;;;7594660;19;19948;-74
2024/02/24 11:19:10;;;;;;;;;;;9.50;97.10;;;;;;7593696;19;20462;-76
2024/02/24 11:22:05;;;;;;;;;;;9.40;96.00;;;;;;7597147;19;19915;-75
2024/02/24 11:24:38;;;;;;;;;;;9.40;96.90;;;;;;7585520;19;20898;-75
2024/02/24 11:27:10;;;;;;;;;;;9.30;96.80;;;;;;7586848;19;20001;-74
2024/02/24 11:29:43;;;;;;;;;;;9.40;96.80;;;;;;7589759;19;20191;-75
2024/02/24 11:32:16;;;;;;;;;;;9.40;95.10;;;;;;7593479;19;20338;-75
2024/02/24 11:34:49;;;;;;;;;;;9.80;95.90;;;;;;7535138;19;19998;-76
2024/02/24 11:37:22;;;;;;;;;;;10.20;93.40;;;;;;7546288;19;19928;-76
2024/02/24 11:39:55;;;;;;;;;;;10.60;92.50;;;;;;7578685;19;19919;-73
2024/02/24 11:42:28;;;;;;;;;;;11.00;93.10;;;;;;7589357;19;20423;-74
2024/02/24 11:45:01;;;;;;;;;;;12.40;91.90;;;;;;7590956;19;20546;-73
2024/02/24 11:47:35;;;;;;;;;;;13.50;88.30;;;;;;7597353;19;19922;-74
2024/02/24 11:50:08;;;;;;;;;;;14.40;87.10;;;;;;7605541;19;19919;-72
2024/02/24 11:52:40;;;;;;;;;;;15.30;75.50;;;;;;7605230;19;19930;-74
2024/02/24 11:55:12;;;;;;;;;;;15.70;76.10;;;;;;7600990;19;19922;-73
2024/02/24 11:57:45;;;;;;;;;;;16.80;72.40;;;;;;7606274;19;19929;-73
2024/02/24 12:00:17;;;;;;;;;;;17.80;69.10;;;;;;7606585;19;20760;-73
2024/02/24 12:02:50;;;;;;;;;;;18.60;64.40;;;;;;7604272;19;19918;-73
2024/02/24 12:05:23;;;;;;;;;;;19.20;61.50;;;;;;7605175;19;19923;-73
2024/02/24 12:07:56;;;;;;;;;;;19.20;59.20;;;;;;7591888;19;19933;-72
2024/02/24 12:10:33;;;;;;;;;;;18.70;59.60;;;;;;7597559;19;19926;-72
2024/02/24 12:13:10;;;;;;;;;;;18.80;57.70;;;;;;7578689;19;20360;-71
2024/02/24 12:15:43;;;;;;;;;;;19.10;59.30;;;;;;7584248;19;19937;-73
2024/02/24 12:18:15;;;;;;;;;;;17.50;58.40;;;;;;7583513;19;20461;-71
2024/02/24 12:20:48;;;;;;;;;;;15.70;61.20;;;;;;7578241;19;19922;-71
2024/02/24 12:23:22;;;;;;;;;;;14.70;66.90;;;;;;7586427;19;21348;-72
2024/02/24 12:25:54;;;;;;;;;;;14.10;68.50;;;;;;7582359;19;19918;-72
2024/02/24 12:28:27;;;;;;;;;;;13.40;69.50;;;;;;7564552;19;19919;-76
2024/02/24 12:31:02;;;;;;;;;;;12.80;69.70;;;;;;7577683;19;20537;-72
2024/02/24 12:33:41;;;;;;;;;;;12.60;70.10;;;;;;7570087;19;20388;-73
2024/02/24 12:36:14;;;;;;;;;;;12.50;70.50;;;;;;7577515;19;19946;-72
2024/02/24 12:38:49;;;;;;;;;;;12.40;70.60;;;;;;7564136;19;20372;-73
2024/02/24 12:41:22;;;;;;;;;;;12.50;69.80;;;;;;7574063;19;20487;-75
2024/02/24 12:43:54;;;;;;;;;;;12.30;70.40;;;;;;7583247;19;19926;-75
2024/02/24 12:46:26;;;;;;;;;;;12.10;72.10;;;;;;7573719;19;20272;-73
2024/02/24 12:48:59;;;;;;;;;;;11.90;71.80;;;;;;7578991;19;20527;-73
2024/02/24 12:51:31;;;;;;;;;;;11.80;72.40;;;;;;7579928;19;22496;-73
2024/02/24 12:54:05;;;;;;;;;;;11.80;73.60;;;;;;7584024;19;19930;-75
2024/02/24 12:56:37;;;;;;;;;;;11.80;71.90;;;;;;7551649;19;20551;-75
2024/02/24 12:59:11;;;;;;;;;;;11.70;72.40;;;;;;7558506;19;21186;-75
2024/02/24 13:01:44;;;;;;;;;;;11.50;72.80;;;;;;7565587;19;20696;-74
2024/02/24 13:04:17;;;;;;;;;;;11.40;74.80;;;;;;7592614;19;19919;-73
2024/02/24 13:06:49;;;;;;;;;;;11.20;73.80;;;;;;7584257;19;20760;-73
2024/02/24 13:09:22;;;;;;;;;;;11.10;75.00;;;;;;7583301;19;19942;-73
2024/02/24 13:11:56;;;;;;;;;;;11.00;74.90;;;;;;7589248;19;19917;-74
2024/02/24 13:14:28;;;;;;;;;;;11.10;74.60;;;;;;7584942;19;19914;-73
2024/02/24 13:17:01;;;;;;;;;;;11.30;76.40;;;;;;7595736;19;20215;-74
2024/02/24 13:19:33;;;;;;;;;;;11.70;75.00;;;;;;7594387;19;19938;-74
2024/02/24 13:22:05;;;;;;;;;;;11.70;73.90;;;;;;7593414;19;19930;-75
2024/02/24 13:24:38;;;;;;;;;;;11.60;73.20;;;;;;7566777;19;20146;-75
2024/02/24 13:27:11;;;;;;;;;;;11.60;73.30;;;;;;7574502;19;19931;-74
2024/02/24 13:29:44;;;;;;;;;;;11.70;72.80;;;;;;7561624;19;19918;-73
2024/02/24 13:32:17;;;;;;;;;;;11.80;73.10;;;;;;7594670;19;20288;-74
2024/02/24 13:34:49;;;;;;;;;;;11.80;73.40;;;;;;7598717;19;19921;-73
2024/02/24 13:37:21;;;;;;;;;;;11.90;73.60;;;;;;7600883;19;19942;-73
2024/02/24 13:39:53;;;;;;;;;;;11.90;72.90;;;;;;7574497;19;19920;-72
2024/02/24 13:42:26;;;;;;;;;;;11.90;72.10;;;;;;7596029;19;19926;-72
2024/02/24 13:45:01;;;;;;;;;;;11.90;71.80;;;;;;7593856;19;19930;-72
2024/02/24 13:47:34;;;;;;;;;;;12.40;70.40;;;;;;7600465;19;19938;-73
2024/02/24 13:50:07;;;;;;;;;;;12.50;70.10;;;;;;7580132;19;20583;-73
2024/02/24 13:52:39;;;;;;;;;;;12.30;70.70;;;;;;7556088;19;19918;-75
2024/02/24 13:55:12;;;;;;;;;;;12.30;70.00;;;;;;7587563;19;19994;-74
2024/02/24 13:57:44;;;;;;;;;;;12.40;70.50;;;;;;7599715;19;19922;-74
2024/02/24 14:00:17;;;;;;;;;;;12.90;69.40;;;;;;7602862;19;19945;-72
2024/02/24 14:02:49;;;;;;;;;;;13.50;68.40;;;;;;7603038;19;19924;-72
2024/02/24 14:05:22;;;;;;;;;;;13.10;70.70;;;;;;7603541;19;19919;-73
2024/02/24 14:07:57;;;;;;;;;;;12.50;72.90;;;;;;7571061;19;21026;-76
2024/02/24 14:10:29;;;;;;;;;;;12.00;73.20;;;;;;7574026;19;19914;-74
2024/02/24 14:13:01;;;;;;;;;;;11.70;74.50;;;;;;7595504;19;19919;-74
2024/02/24 14:15:34;;;;;;;;;;;11.60;75.70;;;;;;7585560;19;19961;-74
2024/02/24 14:18:06;;;;;;;;;;;11.40;76.80;;;;;;7596487;19;19934;-75
2024/02/24 14:20:38;;;;;;;;;;;11.30;77.70;;;;;;7594341;19;19929;-76
2024/02/24 14:23:11;;;;;;;;;;;11.10;77.60;;;;;;7592109;19;19919;-73
2024/02/24 14:25:45;;;;;;;;;;;10.90;79.10;;;;;;7580893;19;19929;-74
2024/02/24 14:28:17;;;;;;;;;;;10.70;80.00;;;;;;7583069;19;19915;-74
2024/02/24 14:30:50;;;;;;;;;;;10.60;80.30;;;;;;7576482;19;19918;-74
2024/02/24 14:33:27;;;;;;;;;;;10.50;81.00;;;;;;7577256;19;19918;-73
2024/02/24 14:35:59;;;;;;;;;;;10.40;82.20;;;;;;7581561;19;20355;-75
2024/02/24 14:38:32;;;;;;;;;;;10.30;82.00;;;;;;7590254;19;20317;-75
2024/02/24 14:41:04;;;;;;;;;;;10.30;81.90;;;;;;7586455;19;20978;-73
2024/02/24 14:43:36;;;;;;;;;;;10.20;82.00;;;;;;7601286;19;19918;-73